Time,TemperatureF,DewpointF,PressureIn,WindDirection,WindDirectionDegrees,WindSpeedMPH,WindSpeedGustMPH,Humidity,HourlyPrecipIn,Conditions,Clouds,dailyrainin,SoftwareType,DateUTC
2013-10-27 00:03:00,-999.0,-99.9,29.97,NW,312,24.0,0.0,-999,-99.99,,,-99.99,,2013-10-27 04:03:00,
2013-10-27 00:24:00,43.0,-99.9,29.97,NW,323,23.0,28.0,-999,-99.99,,,-99.99,,2013-10-27 04:24:00,
2013-10-27 00:44:00,43.0,-99.9,29.97,NNW,331,22.0,27.0,-999,-99.99,,,-99.99,,2013-10-27 04:44:00,
2013-10-27 01:23:00,43.0,-99.9,29.97,NW,313,20.0,28.0,-999,-99.99,,,-99.99,,2013-10-27 05:23:00,
2013-10-27 01:43:00,43.0,-99.9,29.97,NNW,331,22.0,27.0,-999,-99.99,,,-99.99,,2013-10-27 05:43:00,
2013-10-27 01:52:00,43.0,-99.9,29.97,NW,320,22.0,29.0,-999,-99.99,,,-99.99,,2013-10-27 05:52:00,
2013-10-27 02:01:00,43.0,-99.9,29.97,NW,320,22.0,29.0,-999,-99.99,,,-99.99,,2013-10-27 06:01:00,
2013-10-27 02:22:00,43.0,-99.9,29.96,NW,317,19.0,25.0,-999,-99.99,,,-99.99,,2013-10-27 06:22:00,
2013-10-27 02:42:00,42.0,-99.9,29.96,NW,312,18.0,27.0,-999,-99.99,,,-99.99,,2013-10-27 06:42:00,
2013-10-27 02:53:00,42.0,-99.9,29.96,NW,312,18.0,27.0,-999,-99.99,,,-99.99,,2013-10-27 06:53:00,
2013-10-27 03:22:00,43.0,-99.9,29.96,NW,322,17.0,23.0,-999,-99.99,,,-99.99,,2013-10-27 07:22:00,
2013-10-27 03:42:00,42.0,-99.9,29.96,NW,312,18.0,27.0,-999,-99.99,,,-99.99,,2013-10-27 07:42:00,
2013-10-27 03:53:00,42.0,-99.9,29.96,NW,322,14.0,23.0,-999,-99.99,,,-99.99,,2013-10-27 07:53:00,
2013-10-27 04:11:00,43.0,-99.9,29.96,NW,310,16.0,21.0,-999,-99.99,,,-99.99,,2013-10-27 08:11:00,
2013-10-27 04:42:00,43.0,-99.9,29.95,NW,310,15.0,22.0,-999,-99.99,,,-99.99,,2013-10-27 08:42:00,
2013-10-27 05:12:00,43.0,-99.9,29.94,NW,310,13.0,17.0,-999,-99.99,,,-99.99,,2013-10-27 09:12:00,
2013-10-27 05:22:00,43.0,-99.9,29.94,NW,310,13.0,17.0,-999,-99.99,,,-99.99,,2013-10-27 09:22:00,
2013-10-27 05:43:00,43.0,-99.9,29.94,NW,313,14.0,20.0,-999,-99.99,,,-99.99,,2013-10-27 09:43:00,
2013-10-27 06:13:00,42.0,-99.9,29.94,West,280,12.0,21.0,-999,-99.99,,,-99.99,,2013-10-27 10:13:00,
2013-10-27 06:53:00,44.0,-99.9,29.94,WNW,290,15.0,26.0,-999,-99.99,,,-99.99,,2013-10-27 10:53:00,
2013-10-27 07:12:00,44.0,-99.9,29.95,WNW,299,17.0,24.0,-999,-99.99,,,-99.99,,2013-10-27 11:12:00,
2013-10-27 07:22:00,44.0,-99.9,29.95,WNW,299,17.0,24.0,-999,-99.99,,,-99.99,,2013-10-27 11:22:00,
2013-10-27 08:22:00,44.0,-99.9,29.93,WNW,283,19.0,24.0,-999,-99.99,,,-99.99,,2013-10-27 12:22:00,
2013-10-27 08:52:00,45.0,-99.9,29.94,West,276,20.0,26.0,-999,-99.99,,,-99.99,,2013-10-27 12:52:00,
2013-10-27 09:02:00,45.0,-99.9,29.94,West,276,20.0,26.0,-999,-99.99,,,-99.99,,2013-10-27 13:02:00,
2013-10-27 09:22:00,45.0,-99.9,29.94,West,276,20.0,26.0,-999,-99.99,,,-99.99,,2013-10-27 13:22:00,
2013-10-27 09:32:00,45.0,-99.9,29.94,West,276,20.0,26.0,-999,-99.99,,,-99.99,,2013-10-27 13:32:00,
2013-10-27 09:52:00,45.0,-99.9,29.94,WSW,258,21.0,28.0,-999,-99.99,,,-99.99,,2013-10-27 13:52:00,
2013-10-27 10:22:00,45.0,-99.9,29.94,West,264,22.0,29.0,-999,-99.99,,,-99.99,,2013-10-27 14:22:00,
2013-10-27 11:12:00,46.0,-99.9,29.94,WSW,257,22.0,27.0,-999,-99.99,,,-99.99,,2013-10-27 15:12:00,
2013-10-27 11:22:00,45.0,-99.9,29.94,West,263,22.0,0.0,-999,-99.99,,,-99.99,,2013-10-27 15:22:00,
2013-10-27 11:45:00,45.0,-99.9,29.94,West,263,22.0,0.0,-999,-99.99,,,-99.99,,2013-10-27 15:45:00,
2013-10-27 12:54:00,46.0,-99.9,29.93,SSW,199,7.0,28.0,-999,-99.99,,,-99.99,,2013-10-27 16:54:00,
2013-10-27 13:22:00,45.0,-99.9,29.92,WSW,239,17.0,29.0,-999,-99.99,,,-99.99,,2013-10-27 17:22:00,
2013-10-27 13:34:00,45.0,-99.9,29.92,WSW,239,17.0,29.0,-999,-99.99,,,-99.99,,2013-10-27 17:34:00,
2013-10-27 13:43:00,45.0,-99.9,29.92,WSW,239,17.0,29.0,-999,-99.99,,,-99.99,,2013-10-27 17:43:00,
2013-10-27 13:53:00,47.0,-99.9,29.91,WSW,248,30.0,0.0,-999,-99.99,,,-99.99,,2013-10-27 17:53:00,
2013-10-27 14:02:00,47.0,-99.9,29.91,WSW,248,30.0,0.0,-999,-99.99,,,-99.99,,2013-10-27 18:02:00,
2013-10-27 14:53:00,47.0,-99.9,29.88,WSW,244,25.0,0.0,-999,-99.99,,,-99.99,,2013-10-27 18:53:00,
2013-10-27 15:52:00,48.0,-99.9,29.87,WSW,240,26.0,0.0,-999,-99.99,,,-99.99,,2013-10-27 19:52:00,
2013-10-27 16:22:00,48.0,-99.9,29.87,WSW,240,26.0,0.0,-999,-99.99,,,-99.99,,2013-10-27 20:22:00,
2013-10-27 16:32:00,48.0,-99.9,29.87,WSW,240,26.0,0.0,-999,-99.99,,,-99.99,,2013-10-27 20:32:00,
2013-10-27 16:52:00,48.0,-99.9,29.87,SW,231,15.0,0.0,-999,-99.99,,,-99.99,,2013-10-27 20:52:00,
2013-10-27 17:11:00,47.0,-99.9,29.87,SW,231,19.0,29.0,-999,-99.99,,,-99.99,,2013-10-27 21:11:00,
2013-10-27 17:54:00,47.0,-99.9,29.87,SW,226,20.0,0.0,-999,-99.99,,,-99.99,,2013-10-27 21:54:00,
2013-10-27 18:24:00,47.0,-99.9,29.87,SW,226,20.0,0.0,-999,-99.99,,,-99.99,,2013-10-27 22:24:00,
2013-10-27 18:43:00,47.0,-99.9,29.87,SW,226,20.0,0.0,-999,-99.99,,,-99.99,,2013-10-27 22:43:00,
2013-10-27 18:54:00,47.0,-99.9,29.87,SW,232,19.0,30.0,-999,-99.99,,,-99.99,,2013-10-27 22:54:00,
2013-10-27 19:03:00,47.0,-99.9,29.87,SW,232,19.0,30.0,-999,-99.99,,,-99.99,,2013-10-27 23:03:00,
2013-10-27 19:22:00,48.0,-99.9,29.88,SW,236,17.0,33.0,-999,-99.99,,,-99.99,,2013-10-27 23:22:00,
2013-10-27 19:43:00,47.0,-99.9,29.87,SW,232,19.0,30.0,-999,-99.99,,,-99.99,,2013-10-27 23:43:00,
2013-10-27 19:52:00,47.0,-99.9,29.87,SW,232,19.0,30.0,-999,-99.99,,,-99.99,,2013-10-27 23:52:00,
2013-10-27 20:22:00,49.0,-99.9,29.90,WSW,249,28.0,31.0,-999,-99.99,,,-99.99,,2013-10-28 00:22:00,
2013-10-27 20:32:00,49.0,-99.9,29.90,WSW,249,28.0,31.0,-999,-99.99,,,-99.99,,2013-10-28 00:32:00,
2013-10-27 21:22:00,49.0,-99.9,29.91,WSW,254,25.0,29.0,-999,-99.99,,,-99.99,,2013-10-28 01:22:00,
2013-10-27 21:32:00,49.0,-99.9,29.91,WSW,254,25.0,29.0,-999,-99.99,,,-99.99,,2013-10-28 01:32:00,
2013-10-27 21:52:00,50.0,-99.9,29.92,WSW,258,22.0,0.0,-999,-99.99,,,-99.99,,2013-10-28 01:52:00,
2013-10-27 22:22:00,50.0,-99.9,29.93,West,267,19.0,22.0,-999,-99.99,,,-99.99,,2013-10-28 02:22:00,
2013-10-27 22:53:00,51.0,-99.9,29.94,West,280,19.0,24.0,-999,-99.99,,,-99.99,,2013-10-28 02:53:00,
2013-10-27 23:11:00,51.0,-99.9,29.95,West,276,18.0,22.0,-999,-99.99,,,-99.99,,2013-10-28 03:11:00,
2013-10-27 23:22:00,51.0,-99.9,29.94,West,280,19.0,24.0,-999,-99.99,,,-99.99,,2013-10-28 03:22:00,
2013-10-27 23:54:00,51.0,-99.9,29.97,NNW,332,21.0,34.0,-999,-99.99,,,-99.99,,2013-10-28 03:54:00,